Time;durP1;ratioP1;P1;durP2;ratioP2;P2;SDS_P1;SDS_P2;PMS_P1;PMS_P2;Temp;Humidity;BMP_temperature;BMP_pressure;BME280_temperature;BME280_humidity;BME280_pressure;Samples;Min_cycle;Max_cycle;Signal;HPM_P1;HPM_P2
2024/04/17 00:01:11;;;;;;;0.75;0.50;;;19.30;58.00;;;;;;5277336;26;20461;-68
2024/04/17 00:03:37;;;;;;;0.80;0.80;;;19.30;58.00;;;;;;5269557;26;20003;-69
2024/04/17 00:06:02;;;;;;;1.17;0.60;;;19.30;58.00;;;;;;5279874;26;20006;-69
2024/04/17 00:08:29;;;;;;;0.55;0.50;;;19.30;58.10;;;;;;5260878;26;20029;-68
2024/04/17 00:10:54;;;;;;;0.90;0.50;;;19.30;58.00;;;;;;5282226;26;19999;-69
2024/04/17 00:13:20;;;;;;;0.63;0.50;;;19.30;58.10;;;;;;5271819;26;20085;-69
2024/04/17 00:15:45;;;;;;;0.50;0.45;;;19.20;58.00;;;;;;5272854;26;20004;-68
2024/04/17 00:18:11;;;;;;;0.88;0.60;;;19.30;58.10;;;;;;5276098;26;20019;-68
2024/04/17 00:20:36;;;;;;;0.50;0.40;;;19.20;58.00;;;;;;5273352;26;20095;-68
2024/04/17 00:23:02;;;;;;;0.88;0.50;;;19.20;58.00;;;;;;5279947;26;20010;-68
2024/04/17 00:25:27;;;;;;;0.70;0.70;;;19.20;58.10;;;;;;5256830;26;20002;-68
2024/04/17 00:27:53;;;;;;;0.73;0.68;;;19.20;58.10;;;;;;5269181;26;19999;-68
2024/04/17 00:30:18;;;;;;;0.60;0.40;;;19.20;58.00;;;;;;5269593;26;20076;-68
2024/04/17 00:32:44;;;;;;;0.82;0.80;;;19.20;58.00;;;;;;5267781;26;20069;-69
2024/04/17 00:35:09;;;;;;;0.63;0.63;;;19.20;58.00;;;;;;5263627;26;20066;-68
2024/04/17 00:37:35;;;;;;;0.40;0.40;;;19.20;58.10;;;;;;5279082;26;20171;-68
2024/04/17 00:40:00;;;;;;;0.88;0.60;;;19.20;58.00;;;;;;5266298;26;20007;-69
2024/04/17 00:42:25;;;;;;;0.70;0.60;;;19.20;58.10;;;;;;5234924;26;20017;-70
2024/04/17 00:44:51;;;;;;;0.80;0.60;;;19.20;58.10;;;;;;5266867;26;20079;-70
2024/04/17 00:47:16;;;;;;;0.57;0.50;;;19.20;58.20;;;;;;5270803;26;20459;-69
2024/04/17 00:49:42;;;;;;;0.73;0.60;;;19.20;58.10;;;;;;5263143;26;19999;-69
2024/04/17 00:52:08;;;;;;;1.15;0.68;;;19.20;58.10;;;;;;5257660;26;20475;-69
2024/04/17 00:54:35;;;;;;;1.75;0.80;;;19.20;58.10;;;;;;5258787;26;20517;-70
2024/04/17 00:57:01;;;;;;;0.70;0.70;;;19.20;58.00;;;;;;5270285;26;20093;-70
2024/04/17 00:59:27;;;;;;;0.73;0.60;;;19.20;58.00;;;;;;5252103;26;20018;-72
2024/04/17 01:01:53;;;;;;;0.60;0.60;;;19.20;58.10;;;;;;5263772;26;20368;-72
2024/04/17 01:04:18;;;;;;;1.02;0.60;;;19.20;58.00;;;;;;5248398;26;20014;-69
2024/04/17 01:06:44;;;;;;;0.98;0.60;;;19.20;58.10;;;;;;5249510;26;20462;-68
2024/04/17 01:09:10;;;;;;;0.52;0.50;;;19.20;58.00;;;;;;5266340;26;20014;-69
2024/04/17 01:11:39;;;;;;;0.60;0.47;;;19.10;57.80;;;;;;5251939;26;20096;-70
2024/04/17 01:14:05;;;;;;;0.57;0.57;;;19.20;57.90;;;;;;5267775;26;20386;-70
2024/04/17 01:16:31;;;;;;;0.68;0.60;;;19.20;57.90;;;;;;5255672;26;20366;-70
2024/04/17 01:18:57;;;;;;;0.60;0.47;;;19.10;57.90;;;;;;5263969;26;20520;-71
2024/04/17 01:21:23;;;;;;;0.60;0.60;;;19.10;57.90;;;;;;5267158;26;20001;-71
2024/04/17 01:23:53;;;;;;;0.85;0.50;;;19.10;58.00;;;;;;5266449;26;20082;-70
2024/04/17 01:26:19;;;;;;;0.60;0.60;;;19.10;58.10;;;;;;5275186;26;20111;-70
2024/04/17 01:28:45;;;;;;;0.70;0.60;;;19.00;58.00;;;;;;5261245;26;20021;-70
2024/04/17 01:31:10;;;;;;;2.78;0.63;;;19.00;58.10;;;;;;5280300;26;20048;-70
2024/04/17 01:33:37;;;;;;;0.60;0.60;;;19.00;58.10;;;;;;5261640;26;20007;-72
2024/04/17 01:36:06;;;;;;;2.20;1.23;;;19.00;58.20;;;;;;5258328;26;20003;-69
2024/04/17 01:38:31;;;;;;;0.57;0.57;;;19.00;58.10;;;;;;5259700;26;20021;-68
2024/04/17 01:40:57;;;;;;;1.58;0.60;;;19.00;58.10;;;;;;5263573;26;20395;-69
2024/04/17 01:43:24;;;;;;;0.82;0.60;;;19.00;58.20;;;;;;5263405;26;20002;-68
2024/04/17 01:45:50;;;;;;;0.65;0.60;;;18.90;58.10;;;;;;5262974;26;20430;-69
2024/04/17 01:48:15;;;;;;;0.95;0.80;;;19.00;58.20;;;;;;5260177;26;20001;-69
2024/04/17 01:50:41;;;;;;;0.73;0.60;;;19.00;58.20;;;;;;5260489;26;20013;-68
2024/04/17 01:53:06;;;;;;;0.70;0.70;;;18.90;58.20;;;;;;5269269;26;20589;-69
2024/04/17 01:55:32;;;;;;;0.65;0.60;;;19.00;58.20;;;;;;5274046;26;20010;-69
2024/04/17 01:57:58;;;;;;;0.52;0.50;;;19.00;58.10;;;;;;5268055;26;20475;-70
2024/04/17 02:00:23;;;;;;;1.15;0.85;;;19.00;58.10;;;;;;5250123;26;20002;-68
2024/04/17 02:02:48;;;;;;;0.60;0.55;;;19.10;58.00;;;;;;5253086;26;20025;-70
2024/04/17 02:05:14;;;;;;;0.82;0.65;;;19.10;57.60;;;;;;5251133;26;20413;-69
2024/04/17 02:07:40;;;;;;;0.40;0.40;;;19.30;57.60;;;;;;5230931;26;20471;-68
2024/04/17 02:10:06;;;;;;;0.60;0.47;;;19.40;57.30;;;;;;5256309;26;20476;-69
2024/04/17 02:12:31;;;;;;;0.50;0.38;;;19.50;56.90;;;;;;5268571;26;19997;-69
2024/04/17 02:14:57;;;;;;;0.60;0.50;;;19.60;57.40;;;;;;5244528;26;20011;-70
2024/04/17 02:17:22;;;;;;;0.30;0.30;;;19.70;56.60;;;;;;5259280;26;20445;-69
2024/04/17 02:19:47;;;;;;;0.43;0.40;;;19.80;56.40;;;;;;5259159;26;20023;-69
2024/04/17 02:22:13;;;;;;;0.40;0.40;;;19.90;56.30;;;;;;5255876;26;19999;-70
2024/04/17 02:24:38;;;;;;;0.30;0.30;;;20.00;56.20;;;;;;5251978;26;20401;-69
2024/04/17 02:27:04;;;;;;;0.90;0.35;;;20.00;56.00;;;;;;5260841;26;20796;-69
2024/04/17 02:29:29;;;;;;;0.30;0.30;;;20.10;55.90;;;;;;5257083;26;20513;-69
2024/04/17 02:31:55;;;;;;;0.50;0.40;;;20.10;55.90;;;;;;5266876;26;19999;-71
2024/04/17 02:34:21;;;;;;;0.40;0.40;;;20.20;55.80;;;;;;5253450;26;20099;-70
2024/04/17 02:36:47;;;;;;;1.05;0.40;;;20.20;55.60;;;;;;5261478;26;20462;-70
2024/04/17 02:39:12;;;;;;;0.55;0.40;;;20.20;55.70;;;;;;5278440;26;20049;-69
2024/04/17 02:41:38;;;;;;;0.52;0.35;;;20.20;55.60;;;;;;5267816;26;20030;-70
2024/04/17 02:44:04;;;;;;;0.50;0.40;;;20.20;55.50;;;;;;5278624;26;20525;-69
2024/04/17 02:46:30;;;;;;;0.52;0.43;;;20.30;55.70;;;;;;5274359;26;19998;-70
2024/04/17 02:48:55;;;;;;;0.70;0.32;;;20.30;55.70;;;;;;5276543;26;20542;-70
2024/04/17 02:51:21;;;;;;;0.73;0.40;;;20.20;55.80;;;;;;5268748;26;19998;-69
2024/04/17 02:53:46;;;;;;;0.75;0.40;;;20.20;55.80;;;;;;5259240;26;20013;-69
2024/04/17 02:56:12;;;;;;;1.13;0.50;;;20.20;55.90;;;;;;5282496;26;20053;-69
2024/04/17 02:58:37;;;;;;;0.50;0.50;;;20.10;56.00;;;;;;5263180;26;19999;-70
2024/04/17 03:01:13;;;;;;;0.40;0.40;;;20.10;56.00;;;;;;5251403;26;19995;-70
2024/04/17 03:03:39;;;;;;;0.47;0.47;;;20.10;56.10;;;;;;5261442;26;20365;-70
2024/04/17 03:06:05;;;;;;;0.25;0.25;;;20.10;56.20;;;;;;5265854;26;20397;-68
2024/04/17 03:08:31;;;;;;;0.30;0.30;;;20.00;56.30;;;;;;5263580;26;20010;-70
2024/04/17 03:11:00;;;;;;;0.45;0.30;;;20.00;56.40;;;;;;5272642;26;20010;-70
2024/04/17 03:13:26;;;;;;;0.68;0.43;;;19.90;56.40;;;;;;5267516;26;20002;-69
2024/04/17 03:15:52;;;;;;;0.40;0.40;;;19.90;56.50;;;;;;5274540;26;20042;-69
2024/04/17 03:18:17;;;;;;;0.77;0.50;;;19.80;56.20;;;;;;5269594;26;20322;-69
2024/04/17 03:20:43;;;;;;;0.63;0.40;;;19.80;56.60;;;;;;5266913;26;20022;-69
2024/04/17 03:23:08;;;;;;;0.40;0.40;;;19.80;56.60;;;;;;5264981;26;19998;-67
2024/04/17 03:25:34;;;;;;;1.05;0.47;;;19.80;56.60;;;;;;5260523;26;20013;-69
2024/04/17 03:28:00;;;;;;;0.95;0.50;;;19.80;57.20;;;;;;5271475;26;20101;-69
2024/04/17 03:30:25;;;;;;;0.73;0.40;;;19.70;56.50;;;;;;5276257;26;20001;-69
2024/04/17 03:32:51;;;;;;;0.40;0.40;;;19.70;56.70;;;;;;5261604;26;20349;-69
2024/04/17 03:35:16;;;;;;;0.85;0.63;;;19.70;56.80;;;;;;5279029;26;20012;-69
2024/04/17 03:37:42;;;;;;;0.40;0.40;;;19.70;56.70;;;;;;5260296;26;20349;-69
2024/04/17 03:40:08;;;;;;;0.30;0.30;;;19.60;56.80;;;;;;5270471;26;20014;-69
2024/04/17 03:42:33;;;;;;;0.63;0.40;;;19.60;56.90;;;;;;5276677;26;20013;-69
2024/04/17 03:44:59;;;;;;;0.50;0.50;;;19.60;56.80;;;;;;5270169;26;20021;-69
2024/04/17 03:47:25;;;;;;;0.50;0.43;;;19.60;56.90;;;;;;5273558;26;20005;-66
2024/04/17 03:49:50;;;;;;;0.55;0.50;;;19.60;56.60;;;;;;5263648;26;20022;-70
2024/04/17 03:52:16;;;;;;;0.43;0.30;;;19.50;56.80;;;;;;5275102;26;20002;-70
2024/04/17 03:54:41;;;;;;;0.40;0.40;;;19.50;56.80;;;;;;5265252;26;20084;-69
2024/04/17 03:57:07;;;;;;;0.82;0.47;;;19.50;56.90;;;;;;5271839;26;20005;-71
2024/04/17 03:59:32;;;;;;;0.35;0.35;;;19.50;56.90;;;;;;5267585;26;19998;-69
2024/04/17 04:01:58;;;;;;;0.65;0.40;;;19.50;56.90;;;;;;5270842;26;20011;-71
2024/04/17 04:04:23;;;;;;;1.38;0.40;;;19.50;57.00;;;;;;5261750;26;20010;-68
2024/04/17 04:06:49;;;;;;;0.40;0.40;;;19.50;56.80;;;;;;5267153;26;20065;-70
2024/04/17 04:09:15;;;;;;;1.27;0.60;;;19.50;56.80;;;;;;5274227;26;20012;-73
2024/04/17 04:11:41;;;;;;;0.63;0.43;;;19.40;56.90;;;;;;5277984;26;20006;-70
2024/04/17 04:14:06;;;;;;;0.70;0.60;;;19.40;56.90;;;;;;5269043;26;20512;-69
2024/04/17 04:16:33;;;;;;;0.77;0.73;;;19.40;56.90;;;;;;5270305;26;20014;-71
2024/04/17 04:18:58;;;;;;;0.90;0.80;;;19.40;56.80;;;;;;5269165;26;20338;-72
2024/04/17 04:21:24;;;;;;;1.20;0.90;;;19.40;56.80;;;;;;5277844;26;20001;-70
2024/04/17 04:23:49;;;;;;;1.88;1.13;;;19.40;56.90;;;;;;5266048;26;20003;-69
2024/04/17 04:26:15;;;;;;;1.20;0.90;;;19.40;56.80;;;;;;5278334;26;20006;-69
2024/04/17 04:28:41;;;;;;;1.88;0.85;;;19.40;56.90;;;;;;5275539;26;20006;-71
2024/04/17 04:31:06;;;;;;;0.73;0.70;;;19.40;56.80;;;;;;5278446;26;20010;-71
2024/04/17 04:33:32;;;;;;;1.95;1.00;;;19.40;57.00;;;;;;5269097;26;20380;-70
2024/04/17 04:35:58;;;;;;;1.45;0.90;;;19.40;57.10;;;;;;5274207;26;20003;-72
2024/04/17 04:38:23;;;;;;;1.88;1.40;;;19.40;57.20;;;;;;5272682;26;20002;-69
2024/04/17 04:40:49;;;;;;;1.92;1.35;;;19.40;57.30;;;;;;5267716;26;20077;-71
2024/04/17 04:43:15;;;;;;;1.45;1.35;;;19.40;57.30;;;;;;5257653;26;20021;-68
2024/04/17 04:45:40;;;;;;;2.25;1.58;;;19.40;57.30;;;;;;5256165;26;19995;-70
2024/04/17 04:48:06;;;;;;;2.72;1.45;;;19.40;57.40;;;;;;5250423;26;20073;-69
2024/04/17 04:50:32;;;;;;;2.75;1.20;;;19.40;57.40;;;;;;5252712;26;20017;-68
2024/04/17 04:52:57;;;;;;;2.55;1.20;;;19.40;57.40;;;;;;5252813;26;20072;-69
2024/04/17 04:55:23;;;;;;;2.15;1.35;;;19.40;57.40;;;;;;5249026;26;20029;-69
2024/04/17 04:57:48;;;;;;;1.65;1.20;;;19.40;57.40;;;;;;5247563;26;20014;-68
2024/04/17 05:00:14;;;;;;;3.70;1.50;;;19.40;57.50;;;;;;5243448;26;20472;-69
2024/04/17 05:02:39;;;;;;;4.22;1.55;;;19.40;57.40;;;;;;5256040;26;20009;-68
2024/04/17 05:05:05;;;;;;;4.40;1.55;;;19.40;57.40;;;;;;5282421;26;20003;-69
2024/04/17 05:07:31;;;;;;;1.23;1.13;;;19.40;57.40;;;;;;5269012;26;20507;-68
2024/04/17 05:09:56;;;;;;;1.88;1.23;;;19.40;57.40;;;;;;5260719;26;19995;-68
2024/04/17 05:12:22;;;;;;;1.85;1.30;;;19.40;57.40;;;;;;5263431;26;20310;-70
2024/04/17 05:14:47;;;;;;;1.40;1.13;;;19.40;57.40;;;;;;5257807;26;20010;-68
2024/04/17 05:17:13;;;;;;;2.80;1.20;;;19.40;57.40;;;;;;5271032;26;20004;-68
2024/04/17 05:19:38;;;;;;;1.95;1.23;;;19.40;57.40;;;;;;5269172;26;20433;-68
2024/04/17 05:22:04;;;;;;;2.83;1.20;;;19.40;57.30;;;;;;5269603;26;20006;-68
2024/04/17 05:24:29;;;;;;;2.22;1.20;;;19.40;57.20;;;;;;5263340;26;20074;-68
2024/04/17 05:26:55;;;;;;;1.42;1.17;;;19.40;57.20;;;;;;5258991;26;20026;-67
2024/04/17 05:29:20;;;;;;;2.45;0.95;;;19.40;57.20;;;;;;5248542;26;20022;-69
2024/04/17 05:31:46;;;;;;;1.73;1.13;;;19.40;57.10;;;;;;5258398;26;20054;-67
2024/04/17 05:34:12;;;;;;;2.90;0.95;;;19.40;57.00;;;;;;5254430;26;19994;-67
2024/04/17 05:36:37;;;;;;;3.83;1.00;;;19.50;57.00;;;;;;5255499;26;20080;-67
2024/04/17 05:39:03;;;;;;;1.80;1.30;;;19.50;56.90;;;;;;5257749;26;20006;-66
2024/04/17 05:41:28;;;;;;;2.40;1.00;;;19.60;56.70;;;;;;5251944;26;19998;-67
2024/04/17 05:43:54;;;;;;;2.90;1.20;;;19.60;56.70;;;;;;5259033;26;20393;-67
2024/04/17 05:46:21;;;;;;;2.42;1.05;;;19.60;56.80;;;;;;5262840;26;20013;-69
2024/04/17 05:48:47;;;;;;;4.00;1.08;;;19.60;56.50;;;;;;5259980;26;20080;-68
2024/04/17 05:51:12;;;;;;;1.98;1.00;;;19.60;56.60;;;;;;5253828;26;20007;-67
2024/04/17 05:53:38;;;;;;;2.78;1.35;;;19.60;56.50;;;;;;5254246;26;20010;-67
2024/04/17 05:56:03;;;;;;;2.55;0.98;;;19.60;56.60;;;;;;5246033;26;20023;-68
2024/04/17 05:58:29;;;;;;;1.55;1.00;;;19.60;56.60;;;;;;5241731;26;20039;-68
2024/04/17 06:00:54;;;;;;;1.65;1.00;;;19.60;56.60;;;;;;5241329;26;20003;-72
2024/04/17 06:03:20;;;;;;;3.95;1.25;;;19.50;56.60;;;;;;5236484;26;20038;-69
2024/04/17 06:05:45;;;;;;;2.15;1.08;;;19.50;56.80;;;;;;5237174;26;20010;-69
2024/04/17 06:08:11;;;;;;;2.67;1.30;;;19.50;57.00;;;;;;5244042;26;20697;-68
2024/04/17 06:10:36;;;;;;;4.53;1.63;;;19.50;57.10;;;;;;5246188;26;20018;-71
2024/04/17 06:13:02;;;;;;;4.38;1.60;;;19.50;57.20;;;;;;5237690;26;20030;-69
2024/04/17 06:15:28;;;;;;;3.67;1.55;;;19.50;57.20;;;;;;5244942;26;20323;-69
2024/04/17 06:17:55;;;;;;;3.17;1.65;;;19.50;57.30;;;;;;5247113;26;20054;-70
2024/04/17 06:20:21;;;;;;;3.20;1.80;;;19.50;57.40;;;;;;5249125;26;20003;-69
2024/04/17 06:22:46;;;;;;;2.75;1.55;;;19.40;57.40;;;;;;5254810;26;20189;-69
2024/04/17 06:25:12;;;;;;;2.47;1.50;;;19.40;57.40;;;;;;5247751;26;20013;-69
2024/04/17 06:27:38;;;;;;;5.00;1.77;;;19.40;57.40;;;;;;5255851;26;19994;-67
2024/04/17 06:30:04;;;;;;;2.70;1.55;;;19.40;57.40;;;;;;5248709;26;20014;-68
2024/04/17 06:32:29;;;;;;;2.60;1.40;;;19.40;57.40;;;;;;5248416;26;19998;-68
2024/04/17 06:34:55;;;;;;;3.65;1.80;;;19.40;57.60;;;;;;5249618;26;20435;-69
2024/04/17 06:37:20;;;;;;;2.60;1.90;;;19.30;57.60;;;;;;5244985;26;20022;-69
2024/04/17 06:39:46;;;;;;;3.67;1.63;;;19.30;57.70;;;;;;5241338;26;19995;-68
2024/04/17 06:42:12;;;;;;;3.58;1.83;;;19.30;57.80;;;;;;5240417;26;20014;-69
2024/04/17 06:44:38;;;;;;;3.63;2.03;;;19.30;57.80;;;;;;5243379;26;20046;-69
2024/04/17 06:47:05;;;;;;;2.20;1.60;;;19.20;57.70;;;;;;5250573;26;19999;-68
2024/04/17 06:49:30;;;;;;;3.78;2.38;;;19.20;57.70;;;;;;5252985;26;20010;-68
2024/04/17 06:51:56;;;;;;;6.13;2.72;;;19.20;57.80;;;;;;5252641;26;19994;-69
2024/04/17 06:54:21;;;;;;;6.22;2.92;;;19.20;57.90;;;;;;5249462;26;20002;-69
2024/04/17 06:56:47;;;;;;;4.90;2.75;;;19.20;57.90;;;;;;5252259;26;20010;-68
2024/04/17 06:59:12;;;;;;;5.47;3.90;;;19.20;57.90;;;;;;5246362;26;20002;-68
2024/04/17 07:01:38;;;;;;;6.78;4.85;;;19.10;57.70;;;;;;5249458;26;19998;-68
2024/04/17 07:04:04;;;;;;;13.13;6.50;;;19.20;57.80;;;;;;5246149;26;20417;-68
2024/04/17 07:06:29;;;;;;;14.80;7.88;;;19.20;57.70;;;;;;5250783;26;19998;-68
2024/04/17 07:08:55;;;;;;;15.57;9.63;;;19.20;57.60;;;;;;5256652;26;20057;-69
2024/04/17 07:11:20;;;;;;;19.60;11.35;;;19.20;57.60;;;;;;5258698;26;20017;-68
2024/04/17 07:13:46;;;;;;;22.13;14.60;;;19.20;57.50;;;;;;5261262;26;19998;-68
2024/04/17 07:16:11;;;;;;;26.58;16.15;;;19.20;58.20;;;;;;5262352;26;19999;-67
2024/04/17 07:18:37;;;;;;;29.15;16.98;;;19.20;57.50;;;;;;5257365;26;20432;-68
2024/04/17 07:21:02;;;;;;;29.95;18.10;;;19.20;57.50;;;;;;5262652;26;19998;-68
2024/04/17 07:23:28;;;;;;;37.13;20.10;;;19.20;57.50;;;;;;5260569;26;20010;-70
2024/04/17 07:25:54;;;;;;;33.88;21.88;;;19.20;57.50;;;;;;5260755;26;20719;-68
2024/04/17 07:28:19;;;;;;;35.22;21.10;;;19.20;57.50;;;;;;5265764;26;20003;-68
2024/04/17 07:30:45;;;;;;;34.97;21.95;;;19.30;57.50;;;;;;5263293;26;20030;-68
2024/04/17 07:33:10;;;;;;;38.38;23.17;;;19.30;57.50;;;;;;5258049;26;20042;-68
2024/04/17 07:35:37;;;;;;;35.42;21.80;;;19.30;57.40;;;;;;5256582;26;19999;-67
2024/04/17 07:38:03;;;;;;;40.42;23.13;;;19.30;57.30;;;;;;5254510;26;20006;-67
2024/04/17 07:40:28;;;;;;;37.63;23.95;;;19.30;57.10;;;;;;5254028;26;20072;-67
2024/04/17 07:42:54;;;;;;;42.88;23.45;;;19.30;57.10;;;;;;5259408;26;20426;-68
2024/04/17 07:45:21;;;;;;;34.85;22.83;;;19.40;56.90;;;;;;5256421;26;20774;-68
2024/04/17 07:47:47;;;;;;;38.58;23.20;;;19.50;56.90;;;;;;5261023;26;20014;-67
2024/04/17 07:50:12;;;;;;;40.00;22.25;;;19.50;56.70;;;;;;5258286;26;20611;-67
2024/04/17 07:52:38;;;;;;;34.35;20.85;;;19.60;56.80;;;;;;5249052;26;20005;-68
2024/04/17 07:55:04;;;;;;;31.88;21.13;;;19.60;56.60;;;;;;5261073;26;20518;-68
2024/04/17 07:57:30;;;;;;;33.10;20.85;;;19.60;56.50;;;;;;5261361;26;19999;-67
2024/04/17 07:59:55;;;;;;;36.72;20.90;;;19.70;56.50;;;;;;5262407;26;20353;-68
2024/04/17 08:02:21;;;;;;;35.85;22.63;;;19.70;56.40;;;;;;5262412;26;20076;-67
2024/04/17 08:04:46;;;;;;;37.72;22.33;;;19.80;56.30;;;;;;5261154;26;20006;-68
2024/04/17 08:07:15;;;;;;;36.03;22.67;;;19.80;56.30;;;;;;5261090;26;20525;-67
2024/04/17 08:09:41;;;;;;;31.13;21.25;;;19.80;56.00;;;;;;5259460;26;20393;-66
2024/04/17 08:12:07;;;;;;;32.58;21.58;;;19.90;56.10;;;;;;5258266;26;20007;-67
2024/04/17 08:14:32;;;;;;;36.75;21.58;;;19.90;56.00;;;;;;5260837;26;20627;-67
2024/04/17 08:16:58;;;;;;;34.28;21.52;;;19.90;56.00;;;;;;5263483;26;20153;-68
2024/04/17 08:19:24;;;;;;;30.00;20.92;;;20.00;56.00;;;;;;5259316;26;20857;-68
2024/04/17 08:21:49;;;;;;;29.98;20.45;;;20.00;55.90;;;;;;5255761;26;19998;-67
2024/04/17 08:24:15;;;;;;;29.42;20.55;;;20.00;55.80;;;;;;5261237;26;20013;-67
2024/04/17 08:26:41;;;;;;;28.15;20.60;;;20.00;55.70;;;;;;5261817;26;20417;-67
2024/04/17 08:29:07;;;;;;;24.42;18.63;;;20.10;55.80;;;;;;5264790;26;19999;-67
2024/04/17 08:31:32;;;;;;;25.02;18.33;;;20.00;55.80;;;;;;5257793;26;20047;-67
2024/04/17 08:33:58;;;;;;;28.00;19.15;;;20.00;55.80;;;;;;5264366;26;20014;-71
2024/04/17 08:36:23;;;;;;;23.73;18.35;;;20.00;55.70;;;;;;5259002;26;20009;-67
2024/04/17 08:38:49;;;;;;;24.90;17.50;;;20.10;55.80;;;;;;5256670;26;20386;-67
2024/04/17 08:41:14;;;;;;;23.40;16.67;;;20.00;55.70;;;;;;5264144;26;20109;-66
2024/04/17 08:43:41;;;;;;;24.58;16.05;;;20.00;55.70;;;;;;5265316;26;20605;-68
2024/04/17 08:46:08;;;;;;;26.23;16.42;;;20.10;55.80;;;;;;5265778;26;20003;-67
2024/04/17 08:48:37;;;;;;;22.02;15.18;;;20.10;55.90;;;;;;5260416;26;20003;-67
2024/04/17 08:51:03;;;;;;;19.20;14.10;;;20.10;55.80;;;;;;5266336;26;20005;-67
2024/04/17 08:53:31;;;;;;;21.48;15.15;;;20.10;55.80;;;;;;5259622;26;20022;-68
2024/04/17 08:55:57;;;;;;;19.05;14.18;;;20.10;55.80;;;;;;5268437;26;20010;-68
2024/04/17 08:58:22;;;;;;;18.80;13.68;;;20.00;55.80;;;;;;5264976;26;20006;-67
2024/04/17 09:00:51;;;;;;;18.27;12.95;;;20.10;55.80;;;;;;5263954;26;21053;-67
2024/04/17 09:03:22;;;;;;;18.80;12.90;;;20.00;55.90;;;;;;5252927;26;20016;-71
2024/04/17 09:05:48;;;;;;;17.45;12.27;;;20.00;56.00;;;;;;5256046;26;20499;-68
2024/04/17 09:08:15;;;;;;;13.80;11.18;;;20.00;56.20;;;;;;5253716;26;20030;-68
2024/04/17 09:10:41;;;;;;;17.75;11.80;;;19.90;56.10;;;;;;5263502;26;20014;-68
2024/04/17 09:13:07;;;;;;;15.43;10.90;;;19.90;56.20;;;;;;5266210;26;20017;-68
2024/04/17 09:15:33;;;;;;;19.67;11.20;;;19.90;56.30;;;;;;5262012;26;20006;-67
2024/04/17 09:18:01;;;;;;;14.15;10.80;;;19.80;56.30;;;;;;5254559;26;20015;-68
2024/04/17 09:20:27;;;;;;;12.07;9.20;;;19.80;56.40;;;;;;5259191;26;20018;-68
2024/04/17 09:22:53;;;;;;;14.55;9.98;;;19.80;56.20;;;;;;5256068;26;20345;-68
2024/04/17 09:25:19;;;;;;;13.68;9.45;;;19.80;56.30;;;;;;5261673;26;20002;-67
2024/04/17 09:27:46;;;;;;;14.07;9.32;;;19.80;56.30;;;;;;5264036;26;20006;-68
2024/04/17 09:30:12;;;;;;;11.05;8.13;;;19.80;56.20;;;;;;5263199;26;20014;-67
2024/04/17 09:32:38;;;;;;;14.77;8.98;;;19.80;56.30;;;;;;5260419;26;20012;-69
2024/04/17 09:35:11;;;;;;;11.93;8.48;;;19.80;56.30;;;;;;5259887;26;20085;-68
2024/04/17 09:37:37;;;;;;;11.98;8.02;;;19.80;56.30;;;;;;5256159;26;20004;-68
2024/04/17 09:40:08;;;;;;;11.60;7.93;;;19.80;56.30;;;;;;5260070;26;20378;-68
2024/04/17 09:42:35;;;;;;;11.25;7.60;;;19.80;56.30;;;;;;5286493;26;20341;-68
2024/04/17 09:45:01;;;;;;;11.13;8.13;;;19.80;56.30;;;;;;5264344;26;20014;-68
2024/04/17 09:47:28;;;;;;;10.23;7.57;;;19.80;56.20;;;;;;5261599;26;20874;-68
2024/04/17 09:49:56;;;;;;;10.88;7.82;;;19.80;56.30;;;;;;5279106;26;20016;-68
2024/04/17 09:52:22;;;;;;;11.15;6.95;;;19.80;56.30;;;;;;5260333;26;20014;-68
2024/04/17 09:54:48;;;;;;;8.63;6.43;;;19.80;56.40;;;;;;5263792;26;20515;-68
2024/04/17 09:57:15;;;;;;;8.00;6.30;;;19.80;56.40;;;;;;5269591;26;20016;-68
2024/04/17 09:59:42;;;;;;;9.15;6.93;;;19.80;56.40;;;;;;5256776;26;20015;-68
2024/04/17 10:02:13;;;;;;;9.00;5.90;;;19.80;56.40;;;;;;5265480;26;20006;-68
2024/04/17 10:04:39;;;;;;;8.93;5.82;;;19.80;56.50;;;;;;5262957;26;20077;-68
2024/04/17 10:07:09;;;;;;;9.45;6.30;;;19.80;56.30;;;;;;5268301;26;20366;-67
2024/04/17 10:09:34;;;;;;;7.82;5.93;;;19.80;56.40;;;;;;5267006;26;20389;-68
2024/04/17 10:12:00;;;;;;;8.05;5.85;;;19.80;56.40;;;;;;5271222;26;20054;-68
2024/04/17 10:14:28;;;;;;;8.10;5.50;;;19.80;56.40;;;;;;5260263;26;20017;-68
2024/04/17 10:16:54;;;;;;;8.13;5.68;;;19.80;56.50;;;;;;5264085;26;20018;-69
2024/04/17 10:19:20;;;;;;;5.45;4.72;;;19.80;56.40;;;;;;5259987;26;20417;-68
2024/04/17 10:21:46;;;;;;;7.57;5.00;;;19.80;56.50;;;;;;5264365;26;20006;-68
2024/04/17 10:24:12;;;;;;;8.38;5.70;;;19.80;56.40;;;;;;5264132;26;20021;-68
2024/04/17 10:26:46;;;;;;;5.90;4.72;;;19.70;56.40;;;;;;5266294;26;20017;-68
2024/04/17 10:29:28;;;;;;;8.35;4.82;;;19.70;56.50;;;;;;5263101;26;20003;-68
2024/04/17 10:32:04;;;;;;;5.38;4.05;;;19.80;56.50;;;;;;5258244;26;20006;-69
2024/04/17 10:34:46;;;;;;;5.85;4.68;;;19.80;56.40;;;;;;5265604;26;20423;-68
2024/04/17 10:37:14;;;;;;;5.85;4.22;;;19.80;56.40;;;;;;5264228;26;20366;-69
2024/04/17 10:39:41;;;;;;;5.70;4.28;;;19.80;56.50;;;;;;5257927;26;20006;-69
2024/04/17 10:42:08;;;;;;;5.15;3.92;;;19.70;56.40;;;;;;5266059;26;20029;-69
2024/04/17 10:44:35;;;;;;;4.28;3.80;;;19.80;56.50;;;;;;5265987;26;20093;-68
2024/04/17 10:47:05;;;;;;;5.22;3.88;;;19.80;56.50;;;;;;5266674;26;20007;-69
2024/04/17 10:49:38;;;;;;;6.57;3.90;;;19.80;56.40;;;;;;5267597;26;20085;-69
2024/04/17 10:52:04;;;;;;;5.45;4.25;;;19.80;56.50;;;;;;5270515;26;20017;-68
2024/04/17 10:54:31;;;;;;;4.78;3.72;;;19.80;56.50;;;;;;5264113;26;20003;-69
2024/04/17 10:56:57;;;;;;;4.40;3.90;;;19.80;56.60;;;;;;5264776;26;20010;-70
2024/04/17 10:59:29;;;;;;;4.97;4.05;;;19.70;56.50;;;;;;5261442;26;20015;-67
2024/04/17 11:01:55;;;;;;;5.57;3.85;;;19.70;56.50;;;;;;5285149;26;20006;-69
2024/04/17 11:04:23;;;;;;;5.15;4.03;;;19.80;56.60;;;;;;5264050;26;20034;-68
2024/04/17 11:06:49;;;;;;;4.78;3.58;;;19.70;56.40;;;;;;5258112;26;20034;-69
2024/04/17 11:09:15;;;;;;;5.60;3.80;;;19.70;56.40;;;;;;5264711;26;20013;-67
2024/04/17 11:11:46;;;;;;;4.25;3.75;;;19.70;56.50;;;;;;5265768;26;20017;-68
2024/04/17 11:14:15;;;;;;;3.75;3.15;;;19.70;56.50;;;;;;5267656;26;20342;-68
2024/04/17 11:16:41;;;;;;;5.53;3.25;;;19.70;56.40;;;;;;5262693;26;20013;-68
2024/04/17 11:19:07;;;;;;;4.93;3.20;;;19.70;56.50;;;;;;5261850;26;20014;-68
2024/04/17 11:21:33;;;;;;;4.85;3.00;;;19.80;56.30;;;;;;5265888;26;20563;-68
2024/04/17 11:23:58;;;;;;;4.07;3.10;;;19.80;56.50;;;;;;5268054;26;20026;-69
2024/04/17 11:26:26;;;;;;;5.03;2.88;;;19.80;56.60;;;;;;5260870;26;20468;-68
2024/04/17 11:28:52;;;;;;;4.60;3.40;;;19.70;56.50;;;;;;5266661;26;20377;-68
2024/04/17 11:31:17;;;;;;;5.05;3.50;;;19.70;56.40;;;;;;5264840;26;20011;-68
2024/04/17 11:33:45;;;;;;;3.15;2.67;;;19.70;56.50;;;;;;5267149;26;20017;-69
2024/04/17 11:36:13;;;;;;;4.82;2.60;;;19.80;56.50;;;;;;5271654;26;20016;-67
2024/04/17 11:38:43;;;;;;;4.07;2.78;;;19.80;56.40;;;;;;5266163;26;20145;-68
2024/04/17 11:41:10;;;;;;;4.13;2.60;;;19.70;56.30;;;;;;5268958;26;20002;-69
2024/04/17 11:43:36;;;;;;;2.60;2.40;;;19.80;56.40;;;;;;5262808;26;20010;-68
2024/04/17 11:46:02;;;;;;;4.32;2.95;;;19.70;56.40;;;;;;5263486;26;20017;-67
2024/04/17 11:48:27;;;;;;;3.13;2.83;;;19.80;56.30;;;;;;5264459;26;20002;-68
2024/04/17 11:50:53;;;;;;;2.80;2.47;;;19.80;56.30;;;;;;5265747;26;20025;-69
2024/04/17 11:53:19;;;;;;;3.75;2.75;;;19.70;56.30;;;;;;5266466;26;20006;-69
2024/04/17 11:55:45;;;;;;;3.13;2.55;;;19.80;56.40;;;;;;5263241;26;20446;-68
2024/04/17 11:58:10;;;;;;;4.30;2.55;;;19.80;56.30;;;;;;5267981;26;20017;-67
2024/04/17 12:00:36;;;;;;;9.60;2.75;;;19.80;56.20;;;;;;5265121;26;20014;-69
2024/04/17 12:03:01;;;;;;;4.10;2.72;;;19.80;56.30;;;;;;5266705;26;20010;-69
2024/04/17 12:05:27;;;;;;;2.58;2.00;;;19.80;56.20;;;;;;5269524;26;20010;-69
2024/04/17 12:07:53;;;;;;;2.75;2.33;;;19.80;56.30;;;;;;5270447;26;20025;-69
2024/04/17 12:10:19;;;;;;;2.85;2.42;;;19.80;56.40;;;;;;5270039;26;20013;-69
2024/04/17 12:12:45;;;;;;;3.15;2.00;;;19.80;56.20;;;;;;5265327;26;20012;-68
2024/04/17 12:15:11;;;;;;;2.15;1.92;;;19.80;56.30;;;;;;5268683;26;20006;-67
2024/04/17 12:17:36;;;;;;;2.25;1.90;;;19.80;56.30;;;;;;5266972;26;20033;-68
2024/04/17 12:20:02;;;;;;;2.25;2.00;;;19.80;56.40;;;;;;5264558;26;20030;-68
2024/04/17 12:22:28;;;;;;;2.92;2.00;;;19.80;56.40;;;;;;5262384;26;19997;-69
2024/04/17 12:27:38;;;;;;;2.35;2.15;;;19.70;56.20;;;;;;5253100;26;20021;-68
2024/04/17 12:30:04;;;;;;;2.25;1.70;;;19.70;56.30;;;;;;5269149;26;20470;-68
2024/04/17 12:32:29;;;;;;;2.60;1.90;;;19.70;56.30;;;;;;5265650;26;20472;-68
2024/04/17 12:34:55;;;;;;;2.72;1.50;;;19.70;56.20;;;;;;5264111;26;20003;-69
2024/04/17 12:37:21;;;;;;;3.70;1.50;;;19.70;56.20;;;;;;5269493;26;20010;-68
2024/04/17 12:39:46;;;;;;;1.52;1.38;;;19.70;56.20;;;;;;5268828;26;20006;-68